Details From LDZD - Zadar
To LDOS - Osijek
Flight Number -
Tags Generated
Created
Modified
Stats Distance 169 nm / 313 km
Max Altitude 0 ft / 0 m
Waypoints 2
Social Downloads 0
Likes 0
Share VATSIM

Download

Looking for another format? Having issues loading an existing format? Contact us
Advertisement - Login to hide

Notes

Generated

Route

LDZD LDOS

ID Type Via Altitude Latitude Longitude Leg Dist Tot Dist Heading (true) Name
O LDZD APT - 0 ft / 0 m 44.07939˚ 15.34116˚ - 0 nm - -
O LDOS APT - 0 ft / 0 m 45.46630˚ 18.79638˚ 169 nm 169 nm 59° / 62° -

Altitude Profile

Advertisement - Login to hide

Weather


0- 5 10 15 20 25 30 35+ Temperature / ° C

Clouds and Precipitation
Forecast for 2018-05-22 12:00 UTC. Updated an hour ago

Ground ~20,000 ft ~40,000 ft Winds

LDZD

Details ICAO LDZD (ZAD)
Name ZADAR
Region Croatia
Timezone Europe/Zagreb (UTC+2.0)
Stats Elevation 289 ft / 88 m (AMSL)
Location 44.097225° 15.347978°
Runways 2
Magnetic Variation 3.749° E

METAR

LDZD 221030Z 18014KT 150V250 9999 FEW045 24/14 Q1015 NOSIG

Decode

TAF

TAF LDZD 220525Z 2206/2306 14007KT 9999 SCT045 TX25/2212Z TN16/2304Z PROB30 TEMPO 2206/2212 14012KT TSRA FEW035CB BKN045 TEMPO 2218/2306 RA PROB40 TEMPO 2220/2302 4000 TSRA SCT030CB BKN035

Decode

Departure Runways

ID Width Length Bearing (true) Bearing (mag) Surface Threshold Offset Overrun Length
04 147 ft / 45 m 6,519 ft / 1,987 m 41.52° 37.77° Asphalt 0 ft / 0 m 0 ft / 0 m
14 147 ft / 45 m 8,159 ft / 2,487 m 135.79° 132.04° Asphalt 0 ft / 0 m 0 ft / 0 m
22 147 ft / 45 m 6,519 ft / 1,987 m 221.53° 217.78° Asphalt 0 ft / 0 m 0 ft / 0 m
32 147 ft / 45 m 8,159 ft / 2,487 m 315.81° 312.06° Asphalt 0 ft / 0 m 0 ft / 0 m

LDOS

Details ICAO LDOS (OSI)
Name OSIJEK
Region Croatia
Timezone Europe/Zagreb (UTC+2.0)
Stats Elevation 290 ft / 88 m (AMSL)
Location 45.462353° 18.811338°
Runways 1
Magnetic Variation 4.514° E

METAR

LDOS 221030Z 12006KT 070V160 CAVOK 24/15 Q1015

Decode

TAF

TAF LDOS 220525Z 2206/2306 12006KT CAVOK TX25/2213Z TN14/2304Z PROB40 TEMPO 2213/2220 20015G25KT 4000 TSRA FEW020CB BKN030 PROB40 TEMPO 2223/2306 0500 FG VV002

Decode

Destination Runways

ID Width Length Bearing (true) Bearing (mag) Surface Threshold Offset Overrun Length
11 148 ft / 45 m 8,181 ft / 2,494 m 110.60° 106.09° Asphalt 0 ft / 0 m 0 ft / 0 m
29 148 ft / 45 m 8,181 ft / 2,494 m 290.63° 286.12° Asphalt 0 ft / 0 m 0 ft / 0 m

Approach Navaids

Runway Type Ident Frequency Range Bearing (true) Bearing (mag) Slope Elevation
29 Localiser IOS 111.50 MHz 25 nm / 46 km 290.54° 286.03° - 272 ft / 83 m (AMSL)
29 Glidescope IOS 111.50 MHz 25 nm / 46 km 290.54° 286.03° 3.00° 276 ft / 84 m (AMSL)